In Rescue
 
Open Full Screen Window  High Contrast Mode
Wind Gusting 15 knots
03
May 20, 2019 1:36 PM CDT
Weather Information
Wind Direction
  020 °
Wind Speed
  03 kt (3 mph)
Wind Gust
  15 kt (17 mph)
Altimeter
30.16 in
Visibility
10 SM
Temperature
17° C
63° F
Dewpoint
02° C
36° F
Humidity
37%
1hr Rain Fall
00.00 in.
24hr Rain Fall
00.02 in.
Sky Condition
Clear
VFR

METAR KPNM 201836Z AUTO 02003G15KT 10SM CLR 17/02 A3016 RMK AO2

FAA Disclaimer: The data displayed is for advisory purposes only and is not to be used for flight planning or operations.